sensor_id;sensor_type;location;lat;lon;timestamp;P1;durP1;ratioP1;P2;durP2;ratioP2
5646;SDS011;2845;48.626;9.362;2023-06-04T00:00:58;5.43;;;2.80;;
5646;SDS011;2845;48.626;9.362;2023-06-04T00:03:33;7.22;;;2.70;;
5646;SDS011;2845;48.626;9.362;2023-06-04T00:06:08;8.93;;;3.63;;
5646;SDS011;2845;48.626;9.362;2023-06-04T00:08:42;6.03;;;2.60;;
5646;SDS011;2845;48.626;9.362;2023-06-04T00:11:16;6.55;;;3.40;;
5646;SDS011;2845;48.626;9.362;2023-06-04T00:13:52;6.25;;;2.65;;
5646;SDS011;2845;48.626;9.362;2023-06-04T00:16:27;6.10;;;3.22;;
5646;SDS011;2845;48.626;9.362;2023-06-04T00:19:01;5.53;;;3.05;;
5646;SDS011;2845;48.626;9.362;2023-06-04T00:21:35;5.63;;;2.92;;
5646;SDS011;2845;48.626;9.362;2023-06-04T00:24:10;5.63;;;3.13;;
5646;SDS011;2845;48.626;9.362;2023-06-04T00:26:45;6.93;;;3.50;;
5646;SDS011;2845;48.626;9.362;2023-06-04T00:29:19;6.90;;;3.40;;
5646;SDS011;2845;48.626;9.362;2023-06-04T00:31:55;7.63;;;3.38;;
5646;SDS011;2845;48.626;9.362;2023-06-04T00:34:29;5.47;;;2.85;;
5646;SDS011;2845;48.626;9.362;2023-06-04T00:37:03;6.55;;;3.30;;
5646;SDS011;2845;48.626;9.362;2023-06-04T00:39:38;7.10;;;3.67;;
5646;SDS011;2845;48.626;9.362;2023-06-04T00:42:12;10.20;;;3.25;;
5646;SDS011;2845;48.626;9.362;2023-06-04T00:44:46;6.15;;;2.88;;
5646;SDS011;2845;48.626;9.362;2023-06-04T00:47:21;6.88;;;3.70;;
5646;SDS011;2845;48.626;9.362;2023-06-04T00:49:56;5.85;;;2.92;;
5646;SDS011;2845;48.626;9.362;2023-06-04T00:52:31;7.38;;;3.47;;
5646;SDS011;2845;48.626;9.362;2023-06-04T00:55:05;6.65;;;3.22;;
5646;SDS011;2845;48.626;9.362;2023-06-04T00:57:41;5.82;;;3.22;;
5646;SDS011;2845;48.626;9.362;2023-06-04T01:00:15;6.38;;;3.55;;
5646;SDS011;2845;48.626;9.362;2023-06-04T01:02:51;7.97;;;3.45;;
5646;SDS011;2845;48.626;9.362;2023-06-04T01:05:29;8.05;;;3.78;;
5646;SDS011;2845;48.626;9.362;2023-06-04T01:08:11;6.30;;;3.10;;
5646;SDS011;2845;48.626;9.362;2023-06-04T01:10:50;5.95;;;2.97;;
5646;SDS011;2845;48.626;9.362;2023-06-04T01:13:25;5.90;;;3.08;;
5646;SDS011;2845;48.626;9.362;2023-06-04T01:15:59;4.68;;;2.70;;
5646;SDS011;2845;48.626;9.362;2023-06-04T01:18:35;7.75;;;3.17;;
5646;SDS011;2845;48.626;9.362;2023-06-04T01:21:11;6.70;;;3.42;;
5646;SDS011;2845;48.626;9.362;2023-06-04T01:23:51;6.88;;;3.20;;
5646;SDS011;2845;48.626;9.362;2023-06-04T01:26:31;5.95;;;3.40;;
5646;SDS011;2845;48.626;9.362;2023-06-04T01:29:05;5.15;;;3.03;;
5646;SDS011;2845;48.626;9.362;2023-06-04T01:31:42;4.97;;;2.90;;
5646;SDS011;2845;48.626;9.362;2023-06-04T01:34:17;6.95;;;3.10;;
5646;SDS011;2845;48.626;9.362;2023-06-04T01:36:51;6.43;;;2.85;;
5646;SDS011;2845;48.626;9.362;2023-06-04T01:39:26;6.35;;;3.17;;
5646;SDS011;2845;48.626;9.362;2023-06-04T01:42:01;5.40;;;2.88;;
5646;SDS011;2845;48.626;9.362;2023-06-04T01:44:35;5.65;;;2.85;;
5646;SDS011;2845;48.626;9.362;2023-06-04T01:47:10;8.27;;;3.22;;
5646;SDS011;2845;48.626;9.362;2023-06-04T01:49:45;6.45;;;3.15;;
5646;SDS011;2845;48.626;9.362;2023-06-04T01:52:19;6.88;;;3.00;;
5646;SDS011;2845;48.626;9.362;2023-06-04T01:54:54;5.82;;;3.00;;
5646;SDS011;2845;48.626;9.362;2023-06-04T01:57:28;5.65;;;2.67;;
5646;SDS011;2845;48.626;9.362;2023-06-04T02:00:02;6.28;;;3.22;;
5646;SDS011;2845;48.626;9.362;2023-06-04T02:02:40;6.07;;;2.90;;
5646;SDS011;2845;48.626;9.362;2023-06-04T02:05:19;8.05;;;3.60;;
5646;SDS011;2845;48.626;9.362;2023-06-04T02:07:53;5.75;;;2.92;;
5646;SDS011;2845;48.626;9.362;2023-06-04T02:10:29;5.85;;;2.67;;
5646;SDS011;2845;48.626;9.362;2023-06-04T02:13:03;5.68;;;2.72;;
5646;SDS011;2845;48.626;9.362;2023-06-04T02:15:38;4.88;;;2.67;;
5646;SDS011;2845;48.626;9.362;2023-06-04T02:18:13;6.28;;;3.10;;
5646;SDS011;2845;48.626;9.362;2023-06-04T02:20:51;6.05;;;2.80;;
5646;SDS011;2845;48.626;9.362;2023-06-04T02:23:25;8.23;;;3.08;;
5646;SDS011;2845;48.626;9.362;2023-06-04T02:25:59;6.05;;;2.75;;
5646;SDS011;2845;48.626;9.362;2023-06-04T02:28:33;6.25;;;2.78;;
5646;SDS011;2845;48.626;9.362;2023-06-04T02:31:08;4.65;;;2.38;;
5646;SDS011;2845;48.626;9.362;2023-06-04T02:33:42;6.25;;;2.78;;
5646;SDS011;2845;48.626;9.362;2023-06-04T02:36:18;6.25;;;3.30;;
5646;SDS011;2845;48.626;9.362;2023-06-04T02:38:52;5.13;;;2.45;;
5646;SDS011;2845;48.626;9.362;2023-06-04T02:41:26;5.32;;;2.80;;
5646;SDS011;2845;48.626;9.362;2023-06-04T02:44:00;4.93;;;2.83;;
5646;SDS011;2845;48.626;9.362;2023-06-04T02:46:34;5.75;;;2.58;;
5646;SDS011;2845;48.626;9.362;2023-06-04T02:49:10;5.60;;;2.80;;
5646;SDS011;2845;48.626;9.362;2023-06-04T02:51:47;6.38;;;2.95;;
5646;SDS011;2845;48.626;9.362;2023-06-04T02:54:21;4.90;;;2.78;;
5646;SDS011;2845;48.626;9.362;2023-06-04T02:56:55;6.45;;;2.38;;
5646;SDS011;2845;48.626;9.362;2023-06-04T02:59:29;5.90;;;2.80;;
5646;SDS011;2845;48.626;9.362;2023-06-04T03:02:04;5.75;;;2.60;;
5646;SDS011;2845;48.626;9.362;2023-06-04T03:04:39;5.75;;;3.00;;
5646;SDS011;2845;48.626;9.362;2023-06-04T03:07:14;6.38;;;2.92;;
5646;SDS011;2845;48.626;9.362;2023-06-04T03:09:52;7.30;;;2.90;;
5646;SDS011;2845;48.626;9.362;2023-06-04T03:12:26;6.43;;;2.75;;
5646;SDS011;2845;48.626;9.362;2023-06-04T03:15:01;7.43;;;2.92;;
5646;SDS011;2845;48.626;9.362;2023-06-04T03:17:35;5.50;;;2.88;;
5646;SDS011;2845;48.626;9.362;2023-06-04T03:20:10;5.10;;;2.53;;
5646;SDS011;2845;48.626;9.362;2023-06-04T03:22:46;4.75;;;2.45;;
5646;SDS011;2845;48.626;9.362;2023-06-04T03:25:20;5.70;;;2.72;;
5646;SDS011;2845;48.626;9.362;2023-06-04T03:27:54;6.05;;;2.78;;
5646;SDS011;2845;48.626;9.362;2023-06-04T03:30:28;5.32;;;2.60;;
5646;SDS011;2845;48.626;9.362;2023-06-04T03:33:02;6.85;;;2.83;;
5646;SDS011;2845;48.626;9.362;2023-06-04T03:35:37;7.03;;;3.00;;
5646;SDS011;2845;48.626;9.362;2023-06-04T03:38:14;6.07;;;2.75;;
5646;SDS011;2845;48.626;9.362;2023-06-04T03:40:48;5.47;;;2.40;;
5646;SDS011;2845;48.626;9.362;2023-06-04T03:43:24;4.32;;;2.65;;
5646;SDS011;2845;48.626;9.362;2023-06-04T03:45:58;4.18;;;2.55;;
5646;SDS011;2845;48.626;9.362;2023-06-04T03:48:33;4.78;;;2.50;;
5646;SDS011;2845;48.626;9.362;2023-06-04T03:51:07;5.70;;;2.72;;
5646;SDS011;2845;48.626;9.362;2023-06-04T03:53:43;5.05;;;2.53;;
5646;SDS011;2845;48.626;9.362;2023-06-04T03:56:17;5.60;;;2.42;;
5646;SDS011;2845;48.626;9.362;2023-06-04T03:58:52;6.40;;;2.50;;
5646;SDS011;2845;48.626;9.362;2023-06-04T04:01:26;5.35;;;2.75;;
5646;SDS011;2845;48.626;9.362;2023-06-04T04:04:00;5.35;;;2.60;;
5646;SDS011;2845;48.626;9.362;2023-06-04T04:06:34;7.78;;;2.92;;
5646;SDS011;2845;48.626;9.362;2023-06-04T04:09:10;4.90;;;2.60;;
5646;SDS011;2845;48.626;9.362;2023-06-04T04:11:44;5.65;;;2.83;;
5646;SDS011;2845;48.626;9.362;2023-06-04T04:14:18;3.88;;;2.00;;
5646;SDS011;2845;48.626;9.362;2023-06-04T04:16:52;5.43;;;2.88;;
5646;SDS011;2845;48.626;9.362;2023-06-04T04:19:27;7.28;;;2.67;;
5646;SDS011;2845;48.626;9.362;2023-06-04T04:22:01;4.30;;;1.83;;
5646;SDS011;2845;48.626;9.362;2023-06-04T04:24:37;4.97;;;2.15;;
5646;SDS011;2845;48.626;9.362;2023-06-04T04:27:11;4.00;;;2.17;;
5646;SDS011;2845;48.626;9.362;2023-06-04T04:29:45;6.50;;;1.92;;
5646;SDS011;2845;48.626;9.362;2023-06-04T04:32:20;5.35;;;2.25;;
5646;SDS011;2845;48.626;9.362;2023-06-04T04:34:54;5.45;;;2.20;;
5646;SDS011;2845;48.626;9.362;2023-06-04T04:37:29;6.38;;;2.70;;
5646;SDS011;2845;48.626;9.362;2023-06-04T04:40:06;5.10;;;2.60;;
5646;SDS011;2845;48.626;9.362;2023-06-04T04:42:43;4.57;;;2.00;;
5646;SDS011;2845;48.626;9.362;2023-06-04T04:45:18;6.75;;;2.30;;
5646;SDS011;2845;48.626;9.362;2023-06-04T04:47:53;6.43;;;2.58;;
5646;SDS011;2845;48.626;9.362;2023-06-04T04:50:27;7.40;;;2.17;;
5646;SDS011;2845;48.626;9.362;2023-06-04T04:53:01;8.60;;;2.85;;
5646;SDS011;2845;48.626;9.362;2023-06-04T04:55:36;5.10;;;2.10;;
5646;SDS011;2845;48.626;9.362;2023-06-04T04:58:10;4.20;;;2.10;;
5646;SDS011;2845;48.626;9.362;2023-06-04T05:00:45;5.50;;;2.22;;
5646;SDS011;2845;48.626;9.362;2023-06-04T05:03:20;4.32;;;2.00;;
5646;SDS011;2845;48.626;9.362;2023-06-04T05:05:54;4.60;;;2.20;;
5646;SDS011;2845;48.626;9.362;2023-06-04T05:08:28;6.00;;;2.50;;
5646;SDS011;2845;48.626;9.362;2023-06-04T05:11:03;5.10;;;2.80;;
5646;SDS011;2845;48.626;9.362;2023-06-04T05:13:39;5.22;;;2.30;;
5646;SDS011;2845;48.626;9.362;2023-06-04T05:16:14;6.50;;;2.35;;
5646;SDS011;2845;48.626;9.362;2023-06-04T05:18:48;4.03;;;2.10;;
5646;SDS011;2845;48.626;9.362;2023-06-04T05:21:24;6.95;;;2.58;;
5646;SDS011;2845;48.626;9.362;2023-06-04T05:23:58;3.67;;;1.98;;
5646;SDS011;2845;48.626;9.362;2023-06-04T05:26:34;4.95;;;2.30;;
5646;SDS011;2845;48.626;9.362;2023-06-04T05:29:09;4.88;;;2.15;;
5646;SDS011;2845;48.626;9.362;2023-06-04T05:31:43;4.35;;;2.22;;
5646;SDS011;2845;48.626;9.362;2023-06-04T05:34:17;5.63;;;2.67;;
5646;SDS011;2845;48.626;9.362;2023-06-04T05:36:53;5.72;;;2.53;;
5646;SDS011;2845;48.626;9.362;2023-06-04T05:39:29;4.82;;;2.42;;
5646;SDS011;2845;48.626;9.362;2023-06-04T05:42:04;5.57;;;2.53;;
5646;SDS011;2845;48.626;9.362;2023-06-04T05:44:39;4.45;;;2.10;;
5646;SDS011;2845;48.626;9.362;2023-06-04T05:47:13;6.20;;;2.90;;
5646;SDS011;2845;48.626;9.362;2023-06-04T05:49:48;5.25;;;2.45;;
5646;SDS011;2845;48.626;9.362;2023-06-04T05:52:23;3.90;;;2.17;;
5646;SDS011;2845;48.626;9.362;2023-06-04T05:54:57;4.57;;;1.90;;
5646;SDS011;2845;48.626;9.362;2023-06-04T05:57:32;4.30;;;2.10;;
5646;SDS011;2845;48.626;9.362;2023-06-04T06:00:07;5.47;;;2.40;;
5646;SDS011;2845;48.626;9.362;2023-06-04T06:02:43;3.17;;;1.52;;
5646;SDS011;2845;48.626;9.362;2023-06-04T06:05:18;3.45;;;1.50;;
5646;SDS011;2845;48.626;9.362;2023-06-04T06:07:52;3.45;;;1.70;;
5646;SDS011;2845;48.626;9.362;2023-06-04T06:10:28;4.30;;;1.63;;
5646;SDS011;2845;48.626;9.362;2023-06-04T06:13:03;4.30;;;1.60;;
5646;SDS011;2845;48.626;9.362;2023-06-04T06:15:38;2.63;;;1.25;;
5646;SDS011;2845;48.626;9.362;2023-06-04T06:18:12;2.83;;;1.30;;
5646;SDS011;2845;48.626;9.362;2023-06-04T06:20:46;3.72;;;1.17;;
5646;SDS011;2845;48.626;9.362;2023-06-04T06:23:20;2.42;;;1.08;;
5646;SDS011;2845;48.626;9.362;2023-06-04T06:25:56;2.85;;;1.42;;
5646;SDS011;2845;48.626;9.362;2023-06-04T06:28:35;2.72;;;1.20;;
5646;SDS011;2845;48.626;9.362;2023-06-04T06:31:09;4.72;;;1.45;;
5646;SDS011;2845;48.626;9.362;2023-06-04T06:33:43;2.72;;;1.13;;
5646;SDS011;2845;48.626;9.362;2023-06-04T06:36:17;4.53;;;1.20;;
5646;SDS011;2845;48.626;9.362;2023-06-04T06:38:52;3.30;;;1.10;;
5646;SDS011;2845;48.626;9.362;2023-06-04T06:41:26;2.40;;;1.10;;
5646;SDS011;2845;48.626;9.362;2023-06-04T06:44:03;3.17;;;0.93;;
5646;SDS011;2845;48.626;9.362;2023-06-04T06:46:38;2.38;;;0.85;;
5646;SDS011;2845;48.626;9.362;2023-06-04T06:49:12;2.90;;;1.15;;
5646;SDS011;2845;48.626;9.362;2023-06-04T06:51:46;4.72;;;1.20;;
5646;SDS011;2845;48.626;9.362;2023-06-04T06:54:20;4.97;;;1.20;;
5646;SDS011;2845;48.626;9.362;2023-06-04T06:56:54;2.25;;;0.80;;
5646;SDS011;2845;48.626;9.362;2023-06-04T06:59:31;3.33;;;1.30;;
5646;SDS011;2845;48.626;9.362;2023-06-04T07:02:05;2.40;;;0.88;;
5646;SDS011;2845;48.626;9.362;2023-06-04T07:04:40;5.47;;;1.10;;
5646;SDS011;2845;48.626;9.362;2023-06-04T07:07:14;2.53;;;1.00;;
5646;SDS011;2845;48.626;9.362;2023-06-04T07:09:50;2.92;;;1.10;;
5646;SDS011;2845;48.626;9.362;2023-06-04T07:12:24;2.22;;;0.90;;
5646;SDS011;2845;48.626;9.362;2023-06-04T07:14:59;2.17;;;1.10;;
5646;SDS011;2845;48.626;9.362;2023-06-04T07:17:34;2.35;;;1.15;;
5646;SDS011;2845;48.626;9.362;2023-06-04T07:20:08;2.53;;;1.02;;
5646;SDS011;2845;48.626;9.362;2023-06-04T07:22:42;2.58;;;1.15;;
5646;SDS011;2845;48.626;9.362;2023-06-04T07:25:16;4.25;;;1.20;;
5646;SDS011;2845;48.626;9.362;2023-06-04T07:27:51;2.17;;;1.20;;
5646;SDS011;2845;48.626;9.362;2023-06-04T07:30:26;2.15;;;1.00;;
5646;SDS011;2845;48.626;9.362;2023-06-04T07:33:00;3.78;;;0.93;;
5646;SDS011;2845;48.626;9.362;2023-06-04T07:35:34;2.13;;;1.00;;
5646;SDS011;2845;48.626;9.362;2023-06-04T07:38:08;2.88;;;0.80;;
5646;SDS011;2845;48.626;9.362;2023-06-04T07:40:42;2.25;;;1.10;;
5646;SDS011;2845;48.626;9.362;2023-06-04T07:43:19;2.42;;;0.98;;
5646;SDS011;2845;48.626;9.362;2023-06-04T07:45:55;2.58;;;1.10;;
5646;SDS011;2845;48.626;9.362;2023-06-04T07:48:29;2.08;;;0.90;;
5646;SDS011;2845;48.626;9.362;2023-06-04T07:51:03;3.55;;;0.85;;
5646;SDS011;2845;48.626;9.362;2023-06-04T07:53:38;2.58;;;1.10;;
5646;SDS011;2845;48.626;9.362;2023-06-04T07:56:13;3.13;;;1.30;;
5646;SDS011;2845;48.626;9.362;2023-06-04T07:58:47;2.75;;;1.23;;
5646;SDS011;2845;48.626;9.362;2023-06-04T08:01:22;2.55;;;1.00;;
5646;SDS011;2845;48.626;9.362;2023-06-04T08:03:57;2.10;;;1.05;;
5646;SDS011;2845;48.626;9.362;2023-06-04T08:06:31;2.38;;;1.20;;
5646;SDS011;2845;48.626;9.362;2023-06-04T08:09:06;2.30;;;1.13;;
5646;SDS011;2845;48.626;9.362;2023-06-04T08:11:41;3.03;;;1.15;;
5646;SDS011;2845;48.626;9.362;2023-06-04T08:14:16;3.75;;;1.00;;
5646;SDS011;2845;48.626;9.362;2023-06-04T08:16:53;2.65;;;1.17;;
5646;SDS011;2845;48.626;9.362;2023-06-04T08:19:27;4.63;;;1.35;;
5646;SDS011;2845;48.626;9.362;2023-06-04T08:22:02;1.95;;;1.15;;
5646;SDS011;2845;48.626;9.362;2023-06-04T08:24:36;3.45;;;1.27;;
5646;SDS011;2845;48.626;9.362;2023-06-04T08:27:10;2.67;;;1.05;;
5646;SDS011;2845;48.626;9.362;2023-06-04T08:29:44;2.70;;;0.80;;
5646;SDS011;2845;48.626;9.362;2023-06-04T08:32:19;3.15;;;1.17;;
5646;SDS011;2845;48.626;9.362;2023-06-04T08:34:54;2.92;;;1.23;;
5646;SDS011;2845;48.626;9.362;2023-06-04T08:37:28;2.88;;;1.20;;
5646;SDS011;2845;48.626;9.362;2023-06-04T08:40:02;2.75;;;1.02;;
5646;SDS011;2845;48.626;9.362;2023-06-04T08:42:40;3.38;;;1.30;;
5646;SDS011;2845;48.626;9.362;2023-06-04T08:45:17;3.72;;;1.42;;
5646;SDS011;2845;48.626;9.362;2023-06-04T08:47:55;2.58;;;1.20;;
5646;SDS011;2845;48.626;9.362;2023-06-04T08:50:30;2.22;;;1.20;;
5646;SDS011;2845;48.626;9.362;2023-06-04T08:53:05;3.97;;;1.55;;
5646;SDS011;2845;48.626;9.362;2023-06-04T08:55:40;3.08;;;1.20;;
5646;SDS011;2845;48.626;9.362;2023-06-04T08:58:14;2.05;;;1.13;;
5646;SDS011;2845;48.626;9.362;2023-06-04T09:00:49;3.03;;;1.23;;
5646;SDS011;2845;48.626;9.362;2023-06-04T09:03:25;3.03;;;1.48;;
5646;SDS011;2845;48.626;9.362;2023-06-04T09:05:59;2.08;;;1.13;;
5646;SDS011;2845;48.626;9.362;2023-06-04T09:08:36;1.65;;;1.10;;
5646;SDS011;2845;48.626;9.362;2023-06-04T09:11:14;3.25;;;1.50;;
5646;SDS011;2845;48.626;9.362;2023-06-04T09:13:50;3.22;;;1.23;;
5646;SDS011;2845;48.626;9.362;2023-06-04T09:16:26;2.28;;;1.33;;
5646;SDS011;2845;48.626;9.362;2023-06-04T09:19:07;3.50;;;1.35;;
5646;SDS011;2845;48.626;9.362;2023-06-04T09:21:48;2.67;;;1.45;;
5646;SDS011;2845;48.626;9.362;2023-06-04T09:24:23;3.25;;;1.40;;
5646;SDS011;2845;48.626;9.362;2023-06-04T09:26:59;3.38;;;1.38;;
5646;SDS011;2845;48.626;9.362;2023-06-04T09:29:51;6.00;;;1.95;;
5646;SDS011;2845;48.626;9.362;2023-06-04T09:32:27;3.35;;;1.63;;
5646;SDS011;2845;48.626;9.362;2023-06-04T09:35:11;2.15;;;1.40;;
5646;SDS011;2845;48.626;9.362;2023-06-04T09:37:53;2.72;;;1.30;;
5646;SDS011;2845;48.626;9.362;2023-06-04T09:40:34;3.08;;;1.60;;
5646;SDS011;2845;48.626;9.362;2023-06-04T09:43:10;3.15;;;1.58;;
5646;SDS011;2845;48.626;9.362;2023-06-04T09:45:54;3.53;;;1.75;;
5646;SDS011;2845;48.626;9.362;2023-06-04T09:48:29;4.38;;;1.80;;
5646;SDS011;2845;48.626;9.362;2023-06-04T09:51:07;2.38;;;1.38;;
5646;SDS011;2845;48.626;9.362;2023-06-04T09:53:43;2.70;;;1.55;;
5646;SDS011;2845;48.626;9.362;2023-06-04T09:56:28;2.78;;;1.45;;
5646;SDS011;2845;48.626;9.362;2023-06-04T09:59:03;2.67;;;1.65;;
5646;SDS011;2845;48.626;9.362;2023-06-04T10:01:38;4.47;;;1.52;;
5646;SDS011;2845;48.626;9.362;2023-06-04T10:04:13;4.70;;;1.85;;
5646;SDS011;2845;48.626;9.362;2023-06-04T10:06:50;2.35;;;1.52;;
5646;SDS011;2845;48.626;9.362;2023-06-04T10:09:25;2.85;;;1.70;;
5646;SDS011;2845;48.626;9.362;2023-06-04T10:12:04;2.90;;;1.40;;
5646;SDS011;2845;48.626;9.362;2023-06-04T10:14:39;2.65;;;1.58;;
5646;SDS011;2845;48.626;9.362;2023-06-04T10:17:19;3.28;;;1.95;;
5646;SDS011;2845;48.626;9.362;2023-06-04T10:19:57;3.25;;;1.70;;
5646;SDS011;2845;48.626;9.362;2023-06-04T10:22:35;3.65;;;1.70;;
5646;SDS011;2845;48.626;9.362;2023-06-04T10:25:11;4.28;;;1.70;;
5646;SDS011;2845;48.626;9.362;2023-06-04T10:27:46;3.60;;;1.98;;
5646;SDS011;2845;48.626;9.362;2023-06-04T10:30:20;3.92;;;2.10;;
5646;SDS011;2845;48.626;9.362;2023-06-04T10:32:54;4.95;;;2.10;;
5646;SDS011;2845;48.626;9.362;2023-06-04T10:35:30;2.80;;;1.60;;
5646;SDS011;2845;48.626;9.362;2023-06-04T10:38:07;3.72;;;2.17;;
5646;SDS011;2845;48.626;9.362;2023-06-04T10:40:42;7.53;;;2.50;;
5646;SDS011;2845;48.626;9.362;2023-06-04T10:43:17;4.68;;;2.08;;
5646;SDS011;2845;48.626;9.362;2023-06-04T10:45:52;3.92;;;2.08;;
5646;SDS011;2845;48.626;9.362;2023-06-04T10:48:27;3.15;;;1.90;;
5646;SDS011;2845;48.626;9.362;2023-06-04T10:51:01;2.92;;;1.92;;
5646;SDS011;2845;48.626;9.362;2023-06-04T10:53:37;3.13;;;1.70;;
5646;SDS011;2845;48.626;9.362;2023-06-04T10:56:11;2.58;;;1.67;;
5646;SDS011;2845;48.626;9.362;2023-06-04T10:58:45;3.75;;;1.90;;
5646;SDS011;2845;48.626;9.362;2023-06-04T11:01:23;3.30;;;2.08;;
5646;SDS011;2845;48.626;9.362;2023-06-04T11:03:59;4.03;;;2.08;;
5646;SDS011;2845;48.626;9.362;2023-06-04T11:06:33;4.40;;;2.35;;
5646;SDS011;2845;48.626;9.362;2023-06-04T11:09:09;3.90;;;2.10;;
5646;SDS011;2845;48.626;9.362;2023-06-04T11:11:55;5.45;;;2.40;;
5646;SDS011;2845;48.626;9.362;2023-06-04T11:14:31;4.32;;;2.22;;
5646;SDS011;2845;48.626;9.362;2023-06-04T11:17:11;3.13;;;1.95;;
5646;SDS011;2845;48.626;9.362;2023-06-04T11:19:46;2.60;;;1.90;;
5646;SDS011;2845;48.626;9.362;2023-06-04T11:22:20;4.10;;;2.25;;
5646;SDS011;2845;48.626;9.362;2023-06-04T11:24:57;8.10;;;2.30;;
5646;SDS011;2845;48.626;9.362;2023-06-04T11:27:32;5.45;;;2.05;;
5646;SDS011;2845;48.626;9.362;2023-06-04T11:30:08;3.35;;;2.03;;
5646;SDS011;2845;48.626;9.362;2023-06-04T11:32:44;4.72;;;2.40;;
5646;SDS011;2845;48.626;9.362;2023-06-04T11:35:19;3.50;;;2.05;;
5646;SDS011;2845;48.626;9.362;2023-06-04T11:37:53;4.15;;;2.25;;
5646;SDS011;2845;48.626;9.362;2023-06-04T11:40:29;5.72;;;2.55;;
5646;SDS011;2845;48.626;9.362;2023-06-04T11:43:03;3.58;;;2.20;;
5646;SDS011;2845;48.626;9.362;2023-06-04T11:45:38;4.10;;;2.38;;
5646;SDS011;2845;48.626;9.362;2023-06-04T11:48:13;4.20;;;2.03;;
5646;SDS011;2845;48.626;9.362;2023-06-04T11:50:48;3.92;;;2.20;;
5646;SDS011;2845;48.626;9.362;2023-06-04T11:53:23;3.35;;;2.25;;
5646;SDS011;2845;48.626;9.362;2023-06-04T11:55:59;4.70;;;2.20;;
5646;SDS011;2845;48.626;9.362;2023-06-04T11:58:34;3.92;;;2.30;;
5646;SDS011;2845;48.626;9.362;2023-06-04T12:01:08;3.83;;;2.22;;
5646;SDS011;2845;48.626;9.362;2023-06-04T12:03:43;3.28;;;2.08;;
5646;SDS011;2845;48.626;9.362;2023-06-04T12:06:18;4.13;;;2.22;;
5646;SDS011;2845;48.626;9.362;2023-06-04T12:08:54;3.78;;;2.10;;
5646;SDS011;2845;48.626;9.362;2023-06-04T12:11:30;5.45;;;2.50;;
5646;SDS011;2845;48.626;9.362;2023-06-04T12:14:06;4.45;;;2.38;;
5646;SDS011;2845;48.626;9.362;2023-06-04T12:16:40;5.18;;;2.58;;
5646;SDS011;2845;48.626;9.362;2023-06-04T12:19:14;3.90;;;2.28;;
5646;SDS011;2845;48.626;9.362;2023-06-04T12:21:58;4.78;;;2.42;;
5646;SDS011;2845;48.626;9.362;2023-06-04T12:24:35;6.15;;;2.60;;
5646;SDS011;2845;48.626;9.362;2023-06-04T12:27:26;4.55;;;2.13;;
5646;SDS011;2845;48.626;9.362;2023-06-04T12:30:01;6.00;;;2.35;;
5646;SDS011;2845;48.626;9.362;2023-06-04T12:32:38;4.00;;;2.20;;
5646;SDS011;2845;48.626;9.362;2023-06-04T12:35:12;3.70;;;2.13;;
5646;SDS011;2845;48.626;9.362;2023-06-04T12:37:48;4.45;;;2.45;;
5646;SDS011;2845;48.626;9.362;2023-06-04T12:40:22;5.75;;;2.40;;
5646;SDS011;2845;48.626;9.362;2023-06-04T12:42:57;4.95;;;2.90;;
5646;SDS011;2845;48.626;9.362;2023-06-04T12:45:32;3.35;;;2.22;;
5646;SDS011;2845;48.626;9.362;2023-06-04T12:48:06;2.95;;;1.90;;
5646;SDS011;2845;48.626;9.362;2023-06-04T12:50:40;3.42;;;2.17;;
5646;SDS011;2845;48.626;9.362;2023-06-04T12:53:15;3.63;;;2.00;;
5646;SDS011;2845;48.626;9.362;2023-06-04T12:55:49;4.90;;;2.40;;
5646;SDS011;2845;48.626;9.362;2023-06-04T12:58:24;4.05;;;2.60;;
5646;SDS011;2845;48.626;9.362;2023-06-04T13:00:58;5.57;;;2.85;;
5646;SDS011;2845;48.626;9.362;2023-06-04T13:03:33;3.53;;;2.45;;
5646;SDS011;2845;48.626;9.362;2023-06-04T13:06:10;4.63;;;2.40;;
5646;SDS011;2845;48.626;9.362;2023-06-04T13:08:44;4.65;;;3.03;;
5646;SDS011;2845;48.626;9.362;2023-06-04T13:11:18;4.75;;;2.20;;
5646;SDS011;2845;48.626;9.362;2023-06-04T13:13:55;3.80;;;2.30;;
5646;SDS011;2845;48.626;9.362;2023-06-04T13:16:29;4.85;;;2.60;;
5646;SDS011;2845;48.626;9.362;2023-06-04T13:19:03;3.60;;;2.00;;
5646;SDS011;2845;48.626;9.362;2023-06-04T13:21:37;4.80;;;2.70;;
5646;SDS011;2845;48.626;9.362;2023-06-04T13:24:11;4.07;;;2.35;;
5646;SDS011;2845;48.626;9.362;2023-06-04T13:26:46;4.22;;;2.30;;
5646;SDS011;2845;48.626;9.362;2023-06-04T13:29:21;4.85;;;2.25;;
5646;SDS011;2845;48.626;9.362;2023-06-04T13:31:55;3.80;;;2.22;;
5646;SDS011;2845;48.626;9.362;2023-06-04T13:34:29;5.63;;;2.50;;
5646;SDS011;2845;48.626;9.362;2023-06-04T13:37:04;4.93;;;2.67;;
5646;SDS011;2845;48.626;9.362;2023-06-04T13:39:39;4.57;;;2.78;;
5646;SDS011;2845;48.626;9.362;2023-06-04T13:42:13;4.60;;;2.50;;
5646;SDS011;2845;48.626;9.362;2023-06-04T13:44:48;3.25;;;2.25;;
5646;SDS011;2845;48.626;9.362;2023-06-04T13:47:22;4.60;;;2.45;;
5646;SDS011;2845;48.626;9.362;2023-06-04T13:49:57;4.75;;;2.70;;
5646;SDS011;2845;48.626;9.362;2023-06-04T13:52:31;5.03;;;2.70;;
5646;SDS011;2845;48.626;9.362;2023-06-04T13:55:06;4.65;;;2.35;;
5646;SDS011;2845;48.626;9.362;2023-06-04T13:57:40;4.07;;;1.90;;
5646;SDS011;2845;48.626;9.362;2023-06-04T14:00:16;4.22;;;2.25;;
5646;SDS011;2845;48.626;9.362;2023-06-04T14:02:50;4.88;;;2.40;;
5646;SDS011;2845;48.626;9.362;2023-06-04T14:05:25;2.78;;;1.80;;
5646;SDS011;2845;48.626;9.362;2023-06-04T14:08:00;3.25;;;1.77;;
5646;SDS011;2845;48.626;9.362;2023-06-04T14:10:35;3.92;;;2.22;;
5646;SDS011;2845;48.626;9.362;2023-06-04T14:13:12;4.13;;;1.90;;
5646;SDS011;2845;48.626;9.362;2023-06-04T14:15:48;3.25;;;2.00;;
5646;SDS011;2845;48.626;9.362;2023-06-04T14:18:23;2.75;;;1.90;;
5646;SDS011;2845;48.626;9.362;2023-06-04T14:20:57;3.28;;;2.30;;
5646;SDS011;2845;48.626;9.362;2023-06-04T14:23:31;4.43;;;2.20;;
5646;SDS011;2845;48.626;9.362;2023-06-04T14:26:06;3.33;;;2.13;;
5646;SDS011;2845;48.626;9.362;2023-06-04T14:28:40;3.25;;;2.00;;
5646;SDS011;2845;48.626;9.362;2023-06-04T14:31:15;3.55;;;2.13;;
5646;SDS011;2845;48.626;9.362;2023-06-04T14:33:49;3.70;;;2.00;;
5646;SDS011;2845;48.626;9.362;2023-06-04T14:36:23;3.55;;;2.08;;
5646;SDS011;2845;48.626;9.362;2023-06-04T14:38:57;3.35;;;2.10;;
5646;SDS011;2845;48.626;9.362;2023-06-04T14:41:32;4.75;;;2.50;;
5646;SDS011;2845;48.626;9.362;2023-06-04T14:44:06;4.68;;;2.55;;
5646;SDS011;2845;48.626;9.362;2023-06-04T14:46:42;3.53;;;2.20;;
5646;SDS011;2845;48.626;9.362;2023-06-04T14:49:16;3.70;;;2.30;;
5646;SDS011;2845;48.626;9.362;2023-06-04T14:51:50;2.60;;;2.10;;
5646;SDS011;2845;48.626;9.362;2023-06-04T14:54:24;3.20;;;2.10;;
5646;SDS011;2845;48.626;9.362;2023-06-04T14:56:58;3.58;;;2.30;;
5646;SDS011;2845;48.626;9.362;2023-06-04T14:59:33;3.13;;;2.13;;
5646;SDS011;2845;48.626;9.362;2023-06-04T15:02:12;4.60;;;2.10;;
5646;SDS011;2845;48.626;9.362;2023-06-04T15:04:51;4.30;;;2.58;;
5646;SDS011;2845;48.626;9.362;2023-06-04T15:07:25;4.80;;;2.33;;
5646;SDS011;2845;48.626;9.362;2023-06-04T15:09:59;4.40;;;2.38;;
5646;SDS011;2845;48.626;9.362;2023-06-04T15:12:34;4.60;;;2.40;;
5646;SDS011;2845;48.626;9.362;2023-06-04T15:15:10;4.28;;;2.30;;
5646;SDS011;2845;48.626;9.362;2023-06-04T15:17:46;3.63;;;2.20;;
5646;SDS011;2845;48.626;9.362;2023-06-04T15:20:21;3.40;;;2.05;;
5646;SDS011;2845;48.626;9.362;2023-06-04T15:22:57;3.38;;;2.30;;
5646;SDS011;2845;48.626;9.362;2023-06-04T15:25:31;3.67;;;2.25;;
5646;SDS011;2845;48.626;9.362;2023-06-04T15:28:05;3.08;;;1.90;;
5646;SDS011;2845;48.626;9.362;2023-06-04T15:30:39;3.13;;;2.05;;
5646;SDS011;2845;48.626;9.362;2023-06-04T15:33:15;3.15;;;1.90;;
5646;SDS011;2845;48.626;9.362;2023-06-04T15:35:49;3.58;;;2.15;;
5646;SDS011;2845;48.626;9.362;2023-06-04T15:38:24;2.50;;;1.75;;
5646;SDS011;2845;48.626;9.362;2023-06-04T15:40:58;4.10;;;1.92;;
5646;SDS011;2845;48.626;9.362;2023-06-04T15:43:32;4.15;;;2.17;;
5646;SDS011;2845;48.626;9.362;2023-06-04T15:46:06;3.33;;;2.20;;
5646;SDS011;2845;48.626;9.362;2023-06-04T15:48:42;2.92;;;1.75;;
5646;SDS011;2845;48.626;9.362;2023-06-04T15:51:16;3.95;;;1.95;;
5646;SDS011;2845;48.626;9.362;2023-06-04T15:53:51;2.88;;;1.70;;
5646;SDS011;2845;48.626;9.362;2023-06-04T15:56:25;3.60;;;1.83;;
5646;SDS011;2845;48.626;9.362;2023-06-04T15:58:59;4.32;;;1.77;;
5646;SDS011;2845;48.626;9.362;2023-06-04T16:01:33;3.53;;;2.00;;
5646;SDS011;2845;48.626;9.362;2023-06-04T16:04:08;3.28;;;1.90;;